Time,TemperatureF,DewpointF,PressureIn,WindDirection,WindDirectionDegrees,WindSpeedMPH,WindSpeedGustMPH,Humidity,HourlyPrecipIn,Conditions,Clouds,dailyrainin,SoftwareType,DateUTC
2013-03-06 00:01:00,47.3,39.4,29.71,NE,45,0.0,0.7,74,0.00,,,0.00,pywws,2013-03-06 00:01:00,
2013-03-06 00:06:00,47.3,39.4,29.71,NE,45,0.0,0.7,74,0.00,,,0.00,pywws,2013-03-06 00:06:00,
2013-03-06 00:11:00,47.5,39.6,29.71,East,90,0.0,0.7,74,0.00,,,0.00,pywws,2013-03-06 00:11:00,
2013-03-06 00:17:00,47.5,39.6,29.71,NE,45,0.0,0.0,74,0.00,,,0.00,pywws,2013-03-06 00:17:00,
2013-03-06 00:22:00,47.3,39.4,29.70,NE,45,0.0,0.7,74,0.00,,,0.00,pywws,2013-03-06 00:22:00,
2013-03-06 00:27:00,47.1,38.9,29.70,East,90,0.0,0.0,73,0.00,,,0.00,pywws,2013-03-06 00:27:00,
2013-03-06 00:32:00,46.8,38.9,29.70,NE,45,0.0,0.7,74,0.00,,,0.00,pywws,2013-03-06 00:32:00,
2013-03-06 00:37:00,46.6,39.1,29.70,NE,45,0.0,0.0,75,0.00,,,0.00,pywws,2013-03-06 00:37:00,
2013-03-06 00:42:00,46.4,38.9,29.70,East,90,0.0,0.7,75,0.00,,,0.00,pywws,2013-03-06 00:42:00,
2013-03-06 00:47:00,46.2,39.1,29.70,NE,45,0.0,1.6,76,0.00,,,0.00,pywws,2013-03-06 00:47:00,
2013-03-06 00:52:00,46.0,38.9,29.70,NE,45,0.0,0.0,76,0.00,,,0.00,pywws,2013-03-06 00:52:00,
2013-03-06 00:57:00,46.0,39.2,29.70,NE,45,0.0,0.7,77,0.00,,,0.00,pywws,2013-03-06 00:57:00,
2013-03-06 01:02:00,45.9,39.1,29.70,NE,45,0.0,0.7,77,0.00,,,0.00,pywws,2013-03-06 01:02:00,
2013-03-06 01:08:00,45.7,39.2,29.69,NE,45,0.0,0.0,78,0.00,,,0.00,pywws,2013-03-06 01:08:00,
2013-03-06 01:13:00,45.5,39.0,29.69,NE,45,0.0,1.6,78,0.00,,,0.00,pywws,2013-03-06 01:13:00,
2013-03-06 01:18:00,45.5,39.0,29.69,NE,45,0.0,0.0,78,0.00,,,0.00,pywws,2013-03-06 01:18:00,
2013-03-06 01:23:00,45.5,39.0,29.70,NE,45,0.0,0.7,78,0.00,,,0.00,pywws,2013-03-06 01:23:00,
2013-03-06 01:28:00,45.3,39.2,29.69,East,90,0.7,2.2,79,0.00,,,0.00,pywws,2013-03-06 01:28:00,
2013-03-06 01:33:00,45.3,39.2,29.69,NE,45,0.0,1.6,79,0.00,,,0.00,pywws,2013-03-06 01:33:00,
2013-03-06 01:39:00,45.3,39.2,29.70,NE,45,0.0,0.7,79,0.00,,,0.00,pywws,2013-03-06 01:39:00,
2013-03-06 01:44:00,45.3,39.2,29.69,NE,45,0.0,0.0,79,0.00,,,0.00,pywws,2013-03-06 01:44:00,
2013-03-06 01:49:00,45.3,39.2,29.69,NE,45,0.0,0.0,79,0.00,,,0.00,pywws,2013-03-06 01:49:00,
2013-03-06 01:54:00,45.1,39.0,29.69,NE,45,0.0,0.0,79,0.00,,,0.00,pywws,2013-03-06 01:54:00,
2013-03-06 01:59:00,45.1,39.3,29.69,NE,45,0.0,0.0,80,0.00,,,0.00,pywws,2013-03-06 01:59:00,
2013-03-06 02:05:00,45.1,39.3,29.69,NE,45,0.0,0.0,80,0.00,,,0.00,pywws,2013-03-06 02:05:00,
2013-03-06 02:10:00,45.1,39.3,29.68,NE,45,0.0,0.7,80,0.00,,,0.00,pywws,2013-03-06 02:10:00,
2013-03-06 02:15:00,45.1,39.3,29.68,NE,45,0.0,0.7,80,0.00,,,0.00,pywws,2013-03-06 02:15:00,
2013-03-06 02:21:00,45.1,39.3,29.69,NE,45,0.0,0.0,80,0.00,,,0.00,pywws,2013-03-06 02:21:00,
2013-03-06 02:26:00,45.1,39.3,29.68,NE,45,0.0,0.0,80,0.00,,,0.00,pywws,2013-03-06 02:26:00,
2013-03-06 02:31:00,45.0,39.2,29.68,NE,45,0.0,0.0,80,0.00,,,0.00,pywws,2013-03-06 02:31:00,
2013-03-06 02:36:00,45.1,39.3,29.68,NE,45,0.0,0.0,80,0.00,,,0.00,pywws,2013-03-06 02:36:00,
2013-03-06 02:41:00,45.1,39.3,29.68,NE,45,0.0,0.0,80,0.00,,,0.00,pywws,2013-03-06 02:41:00,
2013-03-06 02:47:00,45.0,39.2,29.68,NE,45,0.0,0.0,80,0.00,,,0.00,pywws,2013-03-06 02:47:00,
2013-03-06 02:53:00,45.0,39.2,29.68,NE,45,0.0,0.0,80,0.00,,,0.00,pywws,2013-03-06 02:53:00,
2013-03-06 02:58:00,44.8,39.3,29.68,North,0,0.0,0.0,81,0.00,,,0.00,pywws,2013-03-06 02:58:00,
2013-03-06 03:03:00,44.8,39.3,29.68,North,0,0.0,0.0,81,0.00,,,0.00,pywws,2013-03-06 03:03:00,
2013-03-06 03:08:00,44.6,39.1,29.68,North,0,0.0,0.0,81,0.00,,,0.00,pywws,2013-03-06 03:08:00,
2013-03-06 03:13:00,44.6,39.5,29.68,East,90,0.0,0.0,82,0.00,,,0.00,pywws,2013-03-06 03:13:00,
2013-03-06 03:18:00,44.8,39.6,29.68,NE,45,0.0,0.0,82,0.00,,,0.00,pywws,2013-03-06 03:18:00,
2013-03-06 03:23:00,44.8,39.6,29.68,NE,45,0.0,0.7,82,0.00,,,0.00,pywws,2013-03-06 03:23:00,
2013-03-06 03:28:00,45.0,39.8,29.68,NE,45,0.0,0.7,82,0.00,,,0.00,pywws,2013-03-06 03:28:00,
2013-03-06 03:33:00,45.0,39.8,29.68,NE,45,0.0,0.0,82,0.00,,,0.00,pywws,2013-03-06 03:33:00,
2013-03-06 03:38:00,44.6,39.5,29.68,North,0,0.0,0.7,82,0.00,,,0.00,pywws,2013-03-06 03:38:00,
2013-03-06 03:43:00,44.8,39.6,29.68,NE,45,0.0,0.0,82,0.00,,,0.00,pywws,2013-03-06 03:43:00,
2013-03-06 03:48:00,45.0,39.8,29.68,NE,45,0.0,0.0,82,0.00,,,0.00,pywws,2013-03-06 03:48:00,
2013-03-06 03:53:00,45.0,39.8,29.68,NE,45,0.0,0.0,82,0.00,,,0.00,pywws,2013-03-06 03:53:00,
2013-03-06 03:58:00,45.1,40.0,29.68,East,90,0.0,0.0,82,0.00,,,0.00,pywws,2013-03-06 03:58:00,
2013-03-06 04:03:00,45.3,40.2,29.67,NE,45,0.0,2.2,82,0.00,,,0.00,pywws,2013-03-06 04:03:00,
2013-03-06 04:09:00,45.1,40.0,29.68,East,90,0.0,0.7,82,0.00,,,0.00,pywws,2013-03-06 04:09:00,
2013-03-06 04:14:00,45.5,40.3,29.68,NE,45,0.0,0.7,82,0.00,,,0.00,pywws,2013-03-06 04:14:00,
2013-03-06 04:19:00,45.5,40.3,29.68,NE,45,0.0,0.7,82,0.00,,,0.00,pywws,2013-03-06 04:19:00,
2013-03-06 04:24:00,45.5,40.3,29.67,East,90,0.7,2.2,82,0.00,,,0.00,pywws,2013-03-06 04:24:00,
2013-03-06 04:29:00,45.5,40.3,29.68,NE,45,0.0,0.0,82,0.00,,,0.00,pywws,2013-03-06 04:29:00,
2013-03-06 04:34:00,45.7,40.2,29.67,NE,45,0.0,0.0,81,0.00,,,0.00,pywws,2013-03-06 04:34:00,
2013-03-06 04:40:00,45.7,40.2,29.67,NE,45,0.0,0.0,81,0.00,,,0.00,pywws,2013-03-06 04:40:00,
2013-03-06 04:45:00,45.7,40.2,29.67,NE,45,0.0,0.7,81,0.00,,,0.00,pywws,2013-03-06 04:45:00,
2013-03-06 04:50:00,45.9,40.4,29.67,North,0,0.0,1.6,81,0.00,,,0.00,pywws,2013-03-06 04:50:00,
2013-03-06 04:55:00,45.9,40.4,29.67,NE,45,0.0,0.7,81,0.00,,,0.00,pywws,2013-03-06 04:55:00,
2013-03-06 05:00:00,45.9,40.4,29.67,NE,45,0.0,1.6,81,0.00,,,0.00,pywws,2013-03-06 05:00:00,
2013-03-06 05:01:00,45.9,40.4,29.67,NE,45,0.0,1.6,81,0.00,,,0.00,pywws,2013-03-06 05:01:00,
2013-03-06 05:05:00,45.9,40.4,29.67,NE,45,0.0,1.6,81,0.00,,,0.00,pywws,2013-03-06 05:05:00,
2013-03-06 05:10:00,46.0,40.5,29.67,NE,45,0.0,1.6,81,0.00,,,0.00,pywws,2013-03-06 05:10:00,
2013-03-06 05:15:00,46.0,40.5,29.67,ENE,68,1.6,3.1,81,0.00,,,0.00,pywws,2013-03-06 05:15:00,
2013-03-06 05:21:00,46.2,40.7,29.67,NE,45,0.0,1.6,81,0.00,,,0.00,pywws,2013-03-06 05:21:00,
2013-03-06 05:26:00,46.2,40.7,29.66,East,90,0.0,1.6,81,0.00,,,0.00,pywws,2013-03-06 05:26:00,
2013-03-06 05:31:00,46.2,40.7,29.66,NE,45,0.0,1.6,81,0.00,,,0.00,pywws,2013-03-06 05:31:00,
2013-03-06 05:36:00,46.4,40.9,29.66,NE,45,0.0,0.7,81,0.00,,,0.00,pywws,2013-03-06 05:36:00,
2013-03-06 05:41:00,46.4,40.9,29.66,NE,45,0.7,1.6,81,0.00,,,0.00,pywws,2013-03-06 05:41:00,
2013-03-06 05:46:00,46.4,40.9,29.66,NE,45,0.0,1.6,81,0.00,,,0.00,pywws,2013-03-06 05:46:00,
2013-03-06 05:51:00,46.2,40.7,29.67,NE,45,0.0,0.0,81,0.00,,,0.00,pywws,2013-03-06 05:51:00,
2013-03-06 05:57:00,46.2,40.7,29.67,NE,45,0.0,0.0,81,0.00,,,0.00,pywws,2013-03-06 05:57:00,
2013-03-06 06:02:00,46.2,40.7,29.66,NE,45,0.0,0.7,81,0.00,,,0.00,pywws,2013-03-06 06:02:00,
2013-03-06 06:07:00,46.2,40.7,29.67,NE,45,0.0,1.6,81,0.00,,,0.00,pywws,2013-03-06 06:07:00,
2013-03-06 06:13:00,46.4,41.2,29.66,ENE,68,0.7,3.1,82,0.00,,,0.00,pywws,2013-03-06 06:13:00,
2013-03-06 06:18:00,46.2,40.7,29.67,East,90,0.0,1.6,81,0.00,,,0.00,pywws,2013-03-06 06:18:00,
2013-03-06 06:23:00,46.4,40.9,29.66,East,90,0.0,0.0,81,0.00,,,0.00,pywws,2013-03-06 06:23:00,
2013-03-06 06:29:00,46.4,41.2,29.66,NE,45,0.0,0.0,82,0.00,,,0.00,pywws,2013-03-06 06:29:00,
2013-03-06 06:34:00,46.2,41.0,29.67,NE,45,0.0,2.2,82,0.00,,,0.00,pywws,2013-03-06 06:34:00,
2013-03-06 06:39:00,46.2,41.3,29.67,NE,45,1.6,3.1,83,0.00,,,0.00,pywws,2013-03-06 06:39:00,
2013-03-06 06:45:00,46.2,41.3,29.67,NE,45,0.0,1.6,83,0.00,,,0.00,pywws,2013-03-06 06:45:00,
2013-03-06 06:50:00,46.2,41.3,29.67,East,90,0.0,1.6,83,0.00,,,0.00,pywws,2013-03-06 06:50:00,
2013-03-06 06:55:00,46.2,41.3,29.67,NE,45,0.0,1.6,83,0.00,,,0.00,pywws,2013-03-06 06:55:00,
2013-03-06 07:00:00,46.4,41.5,29.67,NE,45,0.0,2.2,83,0.00,,,0.00,pywws,2013-03-06 07:00:00,
2013-03-06 07:05:00,46.4,41.5,29.67,NE,45,0.0,2.2,83,0.00,,,0.00,pywws,2013-03-06 07:05:00,
2013-03-06 07:11:00,46.4,41.2,29.67,East,90,0.0,1.6,82,0.00,,,0.00,pywws,2013-03-06 07:11:00,
2013-03-06 07:16:00,46.4,41.5,29.68,NE,45,0.7,1.6,83,0.00,,,0.00,pywws,2013-03-06 07:16:00,
2013-03-06 07:21:00,46.4,41.2,29.68,North,0,0.0,0.0,82,0.00,,,0.00,pywws,2013-03-06 07:21:00,
2013-03-06 07:26:00,46.4,41.5,29.68,North,0,0.0,2.2,83,0.00,,,0.00,pywws,2013-03-06 07:26:00,
2013-03-06 07:31:00,46.4,41.5,29.67,NNE,22,0.7,2.2,83,0.00,,,0.00,pywws,2013-03-06 07:31:00,
2013-03-06 07:36:00,46.6,41.4,29.68,North,0,1.6,3.1,82,0.00,,,0.00,pywws,2013-03-06 07:36:00,
2013-03-06 07:41:00,46.6,41.4,29.67,NW,315,0.7,2.2,82,0.00,,,0.00,pywws,2013-03-06 07:41:00,
2013-03-06 07:46:00,46.8,41.6,29.67,SE,135,0.0,1.6,82,0.00,,,0.00,pywws,2013-03-06 07:46:00,
2013-03-06 07:51:00,46.8,41.6,29.68,NE,45,0.7,3.1,82,0.00,,,0.00,pywws,2013-03-06 07:51:00,
2013-03-06 07:57:00,46.9,41.7,29.68,North,0,0.0,1.6,82,0.00,,,0.00,pywws,2013-03-06 07:57:00,
2013-03-06 08:02:00,47.1,41.6,29.69,North,0,0.0,0.0,81,0.00,,,0.00,pywws,2013-03-06 08:02:00,
2013-03-06 08:07:00,47.3,41.8,29.69,NE,45,0.7,3.1,81,0.00,,,0.00,pywws,2013-03-06 08:07:00,
2013-03-06 08:12:00,47.5,41.6,29.69,East,90,1.6,3.8,80,0.00,,,0.00,pywws,2013-03-06 08:12:00,
2013-03-06 08:17:00,47.5,41.6,29.69,NE,45,2.2,4.5,80,0.00,,,0.00,pywws,2013-03-06 08:17:00,
2013-03-06 08:22:00,47.7,41.8,29.69,East,90,1.6,3.1,80,0.00,,,0.00,pywws,2013-03-06 08:22:00,
2013-03-06 08:28:00,47.8,42.0,29.69,NE,45,1.6,3.1,80,0.00,,,0.00,pywws,2013-03-06 08:28:00,
2013-03-06 08:33:00,47.8,42.0,29.69,East,90,0.0,2.2,80,0.00,,,0.00,pywws,2013-03-06 08:33:00,
2013-03-06 08:38:00,48.2,42.0,29.68,NE,45,3.1,5.4,79,0.00,,,0.00,pywws,2013-03-06 08:38:00,
2013-03-06 08:43:00,48.2,42.0,29.68,NE,45,2.2,6.0,79,0.00,,,0.00,pywws,2013-03-06 08:43:00,
2013-03-06 08:49:00,48.4,42.2,29.68,East,90,0.7,3.1,79,0.00,,,0.00,pywws,2013-03-06 08:49:00,
2013-03-06 08:54:00,48.6,42.0,29.68,North,0,0.7,3.8,78,0.00,,,0.00,pywws,2013-03-06 08:54:00,
2013-03-06 08:59:00,48.9,42.4,29.68,North,0,0.0,0.7,78,0.00,,,0.00,pywws,2013-03-06 08:59:00,
2013-03-06 09:05:00,48.9,42.4,29.68,North,0,0.0,0.7,78,0.00,,,0.00,pywws,2013-03-06 09:05:00,
2013-03-06 09:10:00,50.0,42.7,29.69,NE,45,2.2,4.5,76,0.00,,,0.00,pywws,2013-03-06 09:10:00,
2013-03-06 09:15:00,50.4,42.7,29.69,East,90,0.7,2.2,75,0.00,,,0.00,pywws,2013-03-06 09:15:00,
2013-03-06 09:20:00,50.5,42.6,29.68,NE,45,1.6,3.1,74,0.00,,,0.00,pywws,2013-03-06 09:20:00,
2013-03-06 09:25:00,50.5,42.6,29.68,North,0,0.0,1.6,74,0.00,,,0.00,pywws,2013-03-06 09:25:00,
2013-03-06 09:30:00,50.5,42.6,29.68,NE,45,1.6,3.8,74,0.00,,,0.00,pywws,2013-03-06 09:30:00,
2013-03-06 09:35:00,50.5,42.6,29.68,East,90,1.6,3.1,74,0.00,,,0.00,pywws,2013-03-06 09:35:00,
2013-03-06 09:40:00,50.7,42.7,29.68,NE,45,2.2,6.0,74,0.00,,,0.00,pywws,2013-03-06 09:40:00,
2013-03-06 09:45:00,50.9,42.6,29.68,North,0,1.6,3.8,73,0.00,,,0.00,pywws,2013-03-06 09:45:00,
2013-03-06 09:50:00,50.7,42.4,29.68,East,90,1.6,4.5,73,0.00,,,0.00,pywws,2013-03-06 09:50:00,
2013-03-06 09:55:00,50.7,42.4,29.68,NW,315,0.7,3.1,73,0.00,,,0.00,pywws,2013-03-06 09:55:00,
2013-03-06 10:00:00,50.7,42.0,29.68,East,90,2.2,4.5,72,0.00,,,0.00,pywws,2013-03-06 10:00:00,
2013-03-06 10:05:00,50.7,42.0,29.68,East,90,2.2,4.5,72,0.00,,,0.00,pywws,2013-03-06 10:05:00,
2013-03-06 10:10:00,51.4,42.7,29.68,East,90,2.2,4.5,72,0.00,,,0.00,pywws,2013-03-06 10:10:00,
2013-03-06 10:15:00,51.8,42.7,29.67,NNE,22,1.6,4.5,71,0.00,,,0.00,pywws,2013-03-06 10:15:00,
2013-03-06 10:21:00,52.2,42.3,29.68,ENE,68,2.2,5.4,69,0.00,,,0.00,pywws,2013-03-06 10:21:00,
2013-03-06 10:26:00,52.2,42.7,29.68,East,90,0.7,3.8,70,0.00,,,0.00,pywws,2013-03-06 10:26:00,
2013-03-06 10:31:00,52.5,42.6,29.67,NE,45,3.1,6.0,69,0.00,,,0.00,pywws,2013-03-06 10:31:00,
2013-03-06 10:36:00,52.7,43.2,29.68,NE,45,0.0,1.6,70,0.00,,,0.00,pywws,2013-03-06 10:36:00,
2013-03-06 10:41:00,53.1,43.2,29.68,SE,135,0.7,1.6,69,0.00,,,0.00,pywws,2013-03-06 10:41:00,
2013-03-06 10:46:00,53.8,43.5,29.68,East,90,0.7,3.1,68,0.00,,,0.00,pywws,2013-03-06 10:46:00,
2013-03-06 10:52:00,54.5,43.4,29.68,NE,45,0.7,3.1,66,0.00,,,0.00,pywws,2013-03-06 10:52:00,
2013-03-06 10:57:00,54.3,42.8,29.67,NE,45,2.2,4.5,65,0.00,,,0.00,pywws,2013-03-06 10:57:00,
2013-03-06 11:02:00,53.6,42.9,29.68,East,90,1.6,2.2,67,0.00,,,0.00,pywws,2013-03-06 11:02:00,
2013-03-06 11:07:00,53.6,42.9,29.67,NE,45,1.6,5.4,67,0.00,,,0.00,pywws,2013-03-06 11:07:00,
2013-03-06 11:12:00,53.6,42.9,29.68,NNE,22,1.6,3.1,67,0.00,,,0.00,pywws,2013-03-06 11:12:00,
2013-03-06 11:17:00,53.6,42.9,29.67,North,0,2.2,3.8,67,0.00,,,0.00,pywws,2013-03-06 11:17:00,
2013-03-06 11:23:00,53.8,43.1,29.67,NNE,22,1.6,3.1,67,0.00,,,0.00,pywws,2013-03-06 11:23:00,
2013-03-06 11:28:00,54.0,43.3,29.67,NE,45,0.7,2.2,67,0.00,,,0.00,pywws,2013-03-06 11:28:00,
2013-03-06 11:33:00,54.3,43.6,29.67,East,90,0.7,3.8,67,0.00,,,0.00,pywws,2013-03-06 11:33:00,
2013-03-06 11:38:00,55.0,43.5,29.67,East,90,3.1,4.5,65,0.00,,,0.00,pywws,2013-03-06 11:38:00,
2013-03-06 11:43:00,55.2,43.3,29.67,NE,45,2.2,5.4,64,0.00,,,0.00,pywws,2013-03-06 11:43:00,
2013-03-06 11:48:00,55.4,43.4,29.67,North,0,2.2,6.0,64,0.00,,,0.00,pywws,2013-03-06 11:48:00,
2013-03-06 11:53:00,55.6,43.6,29.67,NE,45,2.2,4.5,64,0.00,,,0.00,pywws,2013-03-06 11:53:00,
2013-03-06 11:59:00,56.3,43.9,29.67,NE,45,0.0,1.6,63,0.00,,,0.00,pywws,2013-03-06 11:59:00,
2013-03-06 12:04:00,56.8,44.0,29.67,NE,45,2.2,4.5,62,0.00,,,0.00,pywws,2013-03-06 12:04:00,
2013-03-06 12:09:00,57.0,43.7,29.67,East,90,0.0,2.2,61,0.00,,,0.00,pywws,2013-03-06 12:09:00,
2013-03-06 12:14:00,56.8,44.0,29.67,NE,45,0.7,3.1,62,0.00,,,0.00,pywws,2013-03-06 12:14:00,
2013-03-06 12:20:00,56.8,43.5,29.66,North,0,2.2,5.4,61,0.00,,,0.00,pywws,2013-03-06 12:20:00,
2013-03-06 12:25:00,56.8,44.0,29.66,NW,315,0.0,1.6,62,0.00,,,0.00,pywws,2013-03-06 12:25:00,
2013-03-06 12:30:00,56.8,44.0,29.66,NE,45,0.7,3.1,62,0.00,,,0.00,pywws,2013-03-06 12:30:00,
2013-03-06 12:35:00,56.8,43.5,29.66,NE,45,2.2,5.4,61,0.00,,,0.00,pywws,2013-03-06 12:35:00,
2013-03-06 12:40:00,56.8,44.0,29.66,East,90,1.6,3.8,62,0.00,,,0.00,pywws,2013-03-06 12:40:00,
2013-03-06 12:45:00,56.8,44.0,29.66,SW,225,1.6,5.4,62,0.00,,,0.00,pywws,2013-03-06 12:45:00,
2013-03-06 12:50:00,57.0,44.1,29.65,NE,45,1.6,4.5,62,0.00,,,0.00,pywws,2013-03-06 12:50:00,
2013-03-06 12:55:00,57.0,44.1,29.65,East,90,0.7,2.2,62,0.00,,,0.00,pywws,2013-03-06 12:55:00,
2013-03-06 13:00:00,56.8,44.0,29.66,WSW,248,0.7,2.2,62,0.00,,,0.00,pywws,2013-03-06 13:00:00,
2013-03-06 13:05:00,57.2,44.3,29.65,East,90,0.0,1.6,62,0.00,,,0.00,pywws,2013-03-06 13:05:00,
2013-03-06 13:11:00,57.4,44.0,29.65,NE,45,1.6,3.1,61,0.00,,,0.00,pywws,2013-03-06 13:11:00,
2013-03-06 13:17:00,57.6,44.2,29.66,North,0,2.2,3.8,61,0.00,,,0.00,pywws,2013-03-06 13:17:00,
2013-03-06 13:22:00,57.6,44.2,29.65,East,90,0.0,1.6,61,0.00,,,0.00,pywws,2013-03-06 13:22:00,
2013-03-06 13:27:00,57.7,44.4,29.65,NE,45,0.0,1.6,61,0.00,,,0.00,pywws,2013-03-06 13:27:00,
2013-03-06 13:32:00,57.9,44.6,29.65,NE,45,0.7,1.6,61,0.00,,,0.00,pywws,2013-03-06 13:32:00,
2013-03-06 13:37:00,57.9,44.6,29.65,NE,45,0.7,2.2,61,0.00,,,0.00,pywws,2013-03-06 13:37:00,
2013-03-06 13:42:00,57.7,44.4,29.65,NE,45,1.6,3.8,61,0.00,,,0.00,pywws,2013-03-06 13:42:00,
2013-03-06 13:47:00,57.7,44.4,29.65,NE,45,0.0,1.6,61,0.00,,,0.00,pywws,2013-03-06 13:47:00,
2013-03-06 13:52:00,57.9,44.6,29.65,East,90,0.0,1.6,61,0.00,,,0.00,pywws,2013-03-06 13:52:00,
2013-03-06 13:57:00,57.6,44.2,29.65,WNW,292,0.0,2.2,61,0.00,,,0.00,pywws,2013-03-06 13:57:00,
2013-03-06 14:02:00,57.6,44.2,29.65,NE,45,0.7,2.2,61,0.00,,,0.00,pywws,2013-03-06 14:02:00,
2013-03-06 14:08:00,57.6,44.6,29.65,East,90,0.0,0.7,62,0.00,,,0.00,pywws,2013-03-06 14:08:00,
2013-03-06 14:13:00,57.7,44.4,29.65,NE,45,1.6,3.1,61,0.00,,,0.00,pywws,2013-03-06 14:13:00,
2013-03-06 14:18:00,57.7,44.4,29.65,East,90,0.7,2.2,61,0.00,,,0.00,pywws,2013-03-06 14:18:00,
2013-03-06 14:23:00,57.9,44.6,29.65,NE,45,2.2,4.5,61,0.00,,,0.00,pywws,2013-03-06 14:23:00,
2013-03-06 14:28:00,58.1,44.7,29.65,NE,45,0.0,1.6,61,0.00,,,0.00,pywws,2013-03-06 14:28:00,
2013-03-06 14:33:00,58.1,44.7,29.65,North,0,1.6,2.2,61,0.00,,,0.00,pywws,2013-03-06 14:33:00,
2013-03-06 14:38:00,58.1,44.7,29.65,NE,45,2.2,4.5,61,0.00,,,0.00,pywws,2013-03-06 14:38:00,
2013-03-06 14:43:00,58.3,44.9,29.65,NE,45,0.0,2.2,61,0.00,,,0.00,pywws,2013-03-06 14:43:00,
2013-03-06 14:48:00,58.5,45.1,29.65,NE,45,2.2,3.8,61,0.00,,,0.00,pywws,2013-03-06 14:48:00,
2013-03-06 14:54:00,58.5,44.6,29.65,NE,45,1.6,3.8,60,0.00,,,0.00,pywws,2013-03-06 14:54:00,
2013-03-06 14:59:00,58.5,45.1,29.65,NE,45,0.0,3.1,61,0.00,,,0.00,pywws,2013-03-06 14:59:00,
2013-03-06 15:05:00,58.5,45.1,29.65,NE,45,0.0,3.1,61,0.00,,,0.00,pywws,2013-03-06 15:05:00,
2013-03-06 15:10:00,58.3,44.9,29.65,NE,45,0.7,2.2,61,0.00,,,0.00,pywws,2013-03-06 15:10:00,
2013-03-06 15:15:00,58.3,44.9,29.65,NE,45,0.0,0.7,61,0.00,,,0.00,pywws,2013-03-06 15:15:00,
2013-03-06 15:21:00,58.5,45.1,29.65,West,270,0.7,3.8,61,0.00,,,0.00,pywws,2013-03-06 15:21:00,
2013-03-06 15:26:00,58.5,45.1,29.64,North,0,0.0,0.0,61,0.00,,,0.00,pywws,2013-03-06 15:26:00,
2013-03-06 15:31:00,58.5,45.1,29.63,NE,45,0.0,0.7,61,0.00,,,0.00,pywws,2013-03-06 15:31:00,
2013-03-06 15:36:00,58.5,45.1,29.64,North,0,0.7,2.2,61,0.00,,,0.00,pywws,2013-03-06 15:36:00,
2013-03-06 15:41:00,58.3,44.9,29.64,North,0,1.6,4.5,61,0.00,,,0.00,pywws,2013-03-06 15:41:00,
2013-03-06 15:46:00,58.1,44.7,29.63,North,0,3.1,4.5,61,0.00,,,0.00,pywws,2013-03-06 15:46:00,
2013-03-06 15:51:00,58.1,44.7,29.63,NE,45,0.0,3.1,61,0.00,,,0.00,pywws,2013-03-06 15:51:00,
2013-03-06 15:56:00,57.7,44.4,29.64,NE,45,1.6,3.1,61,0.00,,,0.00,pywws,2013-03-06 15:56:00,
2013-03-06 16:01:00,57.6,44.6,29.64,NE,45,1.6,3.8,62,0.00,,,0.00,pywws,2013-03-06 16:01:00,
2013-03-06 16:06:00,57.6,44.6,29.63,NE,45,1.6,3.8,62,0.00,,,0.00,pywws,2013-03-06 16:06:00,
2013-03-06 16:11:00,57.2,44.3,29.63,NE,45,3.1,5.4,62,0.00,,,0.00,pywws,2013-03-06 16:11:00,
2013-03-06 16:16:00,57.2,44.3,29.63,NE,45,3.1,5.4,62,0.00,,,0.00,pywws,2013-03-06 16:16:00,
2013-03-06 16:21:00,56.8,44.4,29.63,NE,45,2.2,4.5,63,0.00,,,0.00,pywws,2013-03-06 16:21:00,
2013-03-06 16:27:00,56.7,44.2,29.64,East,90,2.2,4.5,63,0.00,,,0.00,pywws,2013-03-06 16:27:00,
2013-03-06 16:32:00,56.5,44.0,29.63,East,90,1.6,4.5,63,0.00,,,0.00,pywws,2013-03-06 16:32:00,
2013-03-06 16:37:00,56.3,44.3,29.63,NE,45,2.2,3.8,64,0.00,,,0.00,pywws,2013-03-06 16:37:00,
2013-03-06 16:42:00,55.9,43.9,29.63,ENE,68,3.8,6.0,64,0.00,,,0.00,pywws,2013-03-06 16:42:00,
2013-03-06 16:48:00,55.8,43.8,29.63,East,90,1.6,4.5,64,0.00,,,0.00,pywws,2013-03-06 16:48:00,
2013-03-06 16:53:00,55.6,44.0,29.63,East,90,2.2,5.4,65,0.00,,,0.00,pywws,2013-03-06 16:53:00,
2013-03-06 16:58:00,55.4,44.2,29.63,NE,45,3.1,6.9,66,0.00,,,0.00,pywws,2013-03-06 16:58:00,
2013-03-06 17:03:00,55.2,44.1,29.63,NE,45,1.6,3.8,66,0.00,,,0.00,pywws,2013-03-06 17:03:00,
2013-03-06 17:08:00,55.0,44.3,29.63,SW,225,2.2,6.9,67,0.00,,,0.00,pywws,2013-03-06 17:08:00,
2013-03-06 17:13:00,54.9,44.1,29.64,North,0,1.6,4.5,67,0.00,,,0.00,pywws,2013-03-06 17:13:00,
2013-03-06 17:18:00,54.7,43.9,29.63,East,90,1.6,4.5,67,0.00,,,0.00,pywws,2013-03-06 17:18:00,
2013-03-06 17:24:00,54.5,43.8,29.64,SE,135,0.7,3.8,67,0.00,,,0.00,pywws,2013-03-06 17:24:00,
2013-03-06 17:29:00,54.3,43.6,29.64,NE,45,2.2,3.8,67,0.00,,,0.00,pywws,2013-03-06 17:29:00,
2013-03-06 17:34:00,54.3,43.6,29.64,East,90,0.7,3.1,67,0.00,,,0.00,pywws,2013-03-06 17:34:00,
2013-03-06 17:39:00,54.1,43.0,29.64,West,270,1.6,4.5,66,0.00,,,0.00,pywws,2013-03-06 17:39:00,
2013-03-06 17:45:00,54.0,42.5,29.64,East,90,0.7,2.2,65,0.00,,,0.00,pywws,2013-03-06 17:45:00,
2013-03-06 17:50:00,53.8,42.3,29.64,NE,45,1.6,3.1,65,0.00,,,0.00,pywws,2013-03-06 17:50:00,
2013-03-06 17:55:00,53.6,42.5,29.64,East,90,1.6,3.1,66,0.00,,,0.00,pywws,2013-03-06 17:55:00,
2013-03-06 18:00:00,53.4,42.3,29.64,NE,45,1.6,3.1,66,0.00,,,0.00,pywws,2013-03-06 18:00:00,
2013-03-06 18:05:00,53.4,42.3,29.64,NE,45,1.6,3.1,66,0.00,,,0.00,pywws,2013-03-06 18:05:00,
2013-03-06 18:10:00,53.1,42.4,29.64,NE,45,0.0,0.0,67,0.00,,,0.00,pywws,2013-03-06 18:10:00,
2013-03-06 18:15:00,53.1,42.4,29.65,East,90,0.0,1.6,67,0.00,,,0.00,pywws,2013-03-06 18:15:00,
2013-03-06 18:20:00,52.9,42.2,29.65,NE,45,2.2,3.8,67,0.00,,,0.00,pywws,2013-03-06 18:20:00,
2013-03-06 18:25:00,52.9,42.6,29.65,East,90,0.0,2.2,68,0.00,,,0.00,pywws,2013-03-06 18:25:00,
2013-03-06 18:30:00,52.7,42.4,29.65,NE,45,1.6,3.8,68,0.00,,,0.00,pywws,2013-03-06 18:30:00,
2013-03-06 18:36:00,52.7,42.8,29.65,NE,45,0.7,2.2,69,0.00,,,0.00,pywws,2013-03-06 18:36:00,
2013-03-06 18:41:00,52.5,42.6,29.66,NE,45,0.7,2.2,69,0.00,,,0.00,pywws,2013-03-06 18:41:00,
2013-03-06 18:46:00,52.3,42.5,29.66,SE,135,1.6,3.8,69,0.00,,,0.00,pywws,2013-03-06 18:46:00,
2013-03-06 18:51:00,52.2,43.0,29.65,East,90,2.2,6.0,71,0.00,,,0.00,pywws,2013-03-06 18:51:00,
2013-03-06 18:57:00,52.0,43.6,29.66,NE,45,1.6,3.8,73,0.00,,,0.00,pywws,2013-03-06 18:57:00,
2013-03-06 19:02:00,51.6,43.3,29.66,East,90,2.2,6.9,73,0.00,,,0.00,pywws,2013-03-06 19:02:00,
2013-03-06 19:07:00,51.1,44.1,29.66,NE,45,0.7,1.6,77,0.00,,,0.00,pywws,2013-03-06 19:07:00,
2013-03-06 19:12:00,50.7,44.1,29.66,East,90,0.7,1.6,78,0.00,,,0.00,pywws,2013-03-06 19:12:00,
2013-03-06 19:17:00,50.5,44.3,29.66,NE,45,1.6,3.8,79,0.00,,,0.00,pywws,2013-03-06 19:17:00,
2013-03-06 19:22:00,50.4,44.4,29.66,SE,135,0.0,1.6,80,0.00,,,0.00,pywws,2013-03-06 19:22:00,
2013-03-06 19:28:00,50.2,44.6,29.66,East,90,0.7,3.1,81,0.00,,,0.00,pywws,2013-03-06 19:28:00,
2013-03-06 19:33:00,50.0,44.7,29.66,East,90,0.0,0.7,82,0.00,,,0.00,pywws,2013-03-06 19:33:00,
2013-03-06 19:38:00,49.8,44.2,29.66,NE,45,1.6,3.1,81,0.00,,,0.00,pywws,2013-03-06 19:38:00,
2013-03-06 19:43:00,49.6,43.7,29.65,North,0,1.6,3.1,80,0.00,,,0.00,pywws,2013-03-06 19:43:00,
2013-03-06 19:49:00,49.6,43.7,29.66,WSW,248,1.6,4.5,80,0.00,,,0.00,pywws,2013-03-06 19:49:00,
2013-03-06 19:54:00,49.5,42.9,29.66,North,0,3.1,6.0,78,0.00,,,0.00,pywws,2013-03-06 19:54:00,
2013-03-06 19:59:00,49.3,42.7,29.66,NE,45,3.8,6.9,78,0.00,,,0.00,pywws,2013-03-06 19:59:00,
2013-03-06 20:05:00,49.3,42.7,29.65,NE,45,3.8,6.9,78,0.00,,,0.00,pywws,2013-03-06 20:05:00,
2013-03-06 20:10:00,49.1,42.9,29.66,East,90,0.0,1.6,79,0.00,,,0.00,pywws,2013-03-06 20:10:00,
2013-03-06 20:15:00,48.9,42.7,29.65,NE,45,0.0,3.1,79,0.00,,,0.00,pywws,2013-03-06 20:15:00,
2013-03-06 20:20:00,48.7,42.5,29.66,NE,45,2.2,3.8,79,0.00,,,0.00,pywws,2013-03-06 20:20:00,
2013-03-06 20:25:00,48.7,42.8,29.66,NE,45,1.6,4.5,80,0.00,,,0.00,pywws,2013-03-06 20:25:00,
2013-03-06 20:30:00,48.7,42.8,29.65,East,90,1.6,4.5,80,0.00,,,0.00,pywws,2013-03-06 20:30:00,
2013-03-06 20:35:00,48.6,42.7,29.66,NE,45,3.1,6.0,80,0.00,,,0.00,pywws,2013-03-06 20:35:00,
2013-03-06 20:40:00,48.6,43.0,29.66,East,90,0.7,2.2,81,0.00,,,0.00,pywws,2013-03-06 20:40:00,
2013-03-06 20:45:00,48.4,42.8,29.66,NE,45,2.2,5.4,81,0.00,,,0.00,pywws,2013-03-06 20:45:00,
2013-03-06 20:50:00,48.4,43.1,29.66,NE,45,0.7,3.1,82,0.00,,,0.00,pywws,2013-03-06 20:50:00,
2013-03-06 20:56:00,48.4,42.8,29.65,ESE,112,0.7,2.2,81,0.00,,,0.00,pywws,2013-03-06 20:56:00,
2013-03-06 21:01:00,48.0,42.8,29.65,East,90,1.6,3.1,82,0.00,,,0.00,pywws,2013-03-06 21:01:00,
2013-03-06 21:06:00,48.0,42.8,29.65,East,90,1.6,3.1,82,0.00,,,0.00,pywws,2013-03-06 21:06:00,
2013-03-06 21:11:00,48.4,43.1,29.66,South,180,0.0,1.6,82,0.00,,,0.00,pywws,2013-03-06 21:11:00,
2013-03-06 21:17:00,48.4,43.1,29.65,East,90,0.0,2.2,82,0.00,,,0.00,pywws,2013-03-06 21:17:00,
2013-03-06 21:22:00,48.2,43.3,29.65,East,90,0.7,3.8,83,0.00,,,0.00,pywws,2013-03-06 21:22:00,
2013-03-06 21:27:00,48.2,43.3,29.65,NE,45,0.0,3.1,83,0.00,,,0.00,pywws,2013-03-06 21:27:00,
2013-03-06 21:32:00,48.0,43.1,29.66,East,90,0.0,0.7,83,0.00,,,0.00,pywws,2013-03-06 21:32:00,
2013-03-06 21:37:00,48.0,43.4,29.65,NW,315,0.0,1.6,84,0.00,,,0.00,pywws,2013-03-06 21:37:00,
2013-03-06 21:42:00,47.8,43.2,29.65,East,90,0.7,2.2,84,0.00,,,0.00,pywws,2013-03-06 21:42:00,
2013-03-06 21:48:00,47.8,43.6,29.65,NE,45,1.6,3.1,85,0.00,,,0.00,pywws,2013-03-06 21:48:00,
2013-03-06 21:53:00,47.7,43.4,29.65,NNE,22,0.7,2.2,85,0.00,,,0.00,pywws,2013-03-06 21:53:00,
2013-03-06 21:58:00,47.7,43.4,29.65,NE,45,0.0,0.0,85,0.00,,,0.00,pywws,2013-03-06 21:58:00,
2013-03-06 22:03:00,47.7,43.7,29.65,ENE,68,0.0,1.6,86,0.00,,,0.00,pywws,2013-03-06 22:03:00,
2013-03-06 22:08:00,47.5,43.8,29.65,NE,45,0.7,1.6,87,0.00,,,0.00,pywws,2013-03-06 22:08:00,
2013-03-06 22:13:00,47.5,43.8,29.65,East,90,0.7,2.2,87,0.00,,,0.00,pywws,2013-03-06 22:13:00,
2013-03-06 22:18:00,47.3,43.6,29.65,NE,45,1.6,3.1,87,0.00,,,0.00,pywws,2013-03-06 22:18:00,
2013-03-06 22:24:00,47.3,43.6,29.65,NE,45,0.7,2.2,87,0.00,,,0.00,pywws,2013-03-06 22:24:00,
2013-03-06 22:29:00,47.1,43.5,29.65,East,90,0.0,1.6,87,0.00,,,0.00,pywws,2013-03-06 22:29:00,
2013-03-06 22:34:00,47.1,43.5,29.65,East,90,1.6,3.1,87,0.00,,,0.00,pywws,2013-03-06 22:34:00,
2013-03-06 22:39:00,47.1,43.5,29.65,East,90,1.6,3.8,87,0.00,,,0.00,pywws,2013-03-06 22:39:00,
2013-03-06 22:44:00,47.1,43.5,29.65,ENE,68,0.7,3.1,87,0.00,,,0.00,pywws,2013-03-06 22:44:00,
2013-03-06 22:49:00,47.1,43.5,29.65,East,90,0.0,1.6,87,0.00,,,0.00,pywws,2013-03-06 22:49:00,
2013-03-06 22:54:00,47.1,43.5,29.65,NE,45,1.6,3.1,87,0.00,,,0.00,pywws,2013-03-06 22:54:00,
2013-03-06 23:00:00,47.1,43.5,29.65,NE,45,1.6,3.8,87,0.00,,,0.00,pywws,2013-03-06 23:00:00,
2013-03-06 23:05:00,47.1,43.5,29.65,NE,45,1.6,3.8,87,0.00,,,0.00,pywws,2013-03-06 23:05:00,
2013-03-06 23:10:00,46.9,43.3,29.65,NW,315,0.0,1.6,87,0.00,,,0.00,pywws,2013-03-06 23:10:00,
2013-03-06 23:15:00,46.9,43.6,29.65,SE,135,0.0,1.6,88,0.00,,,0.00,pywws,2013-03-06 23:15:00,
2013-03-06 23:21:00,46.9,43.6,29.65,NE,45,0.7,1.6,88,0.00,,,0.00,pywws,2013-03-06 23:21:00,
2013-03-06 23:26:00,46.9,43.6,29.65,East,90,0.7,3.1,88,0.00,,,0.00,pywws,2013-03-06 23:26:00,
2013-03-06 23:31:00,46.8,43.4,29.65,NE,45,0.0,0.0,88,0.00,,,0.00,pywws,2013-03-06 23:31:00,
2013-03-06 23:36:00,46.8,43.4,29.65,East,90,1.6,3.1,88,0.00,,,0.00,pywws,2013-03-06 23:36:00,
2013-03-06 23:41:00,46.8,43.4,29.65,NE,45,0.0,0.0,88,0.00,,,0.00,pywws,2013-03-06 23:41:00,
2013-03-06 23:46:00,46.6,43.2,29.65,NW,315,0.7,2.2,88,0.00,,,0.00,pywws,2013-03-06 23:46:00,
2013-03-06 23:51:00,46.6,43.2,29.64,NE,45,0.7,3.1,88,0.00,,,0.00,pywws,2013-03-06 23:51:00,
2013-03-06 23:57:00,46.6,43.2,29.65,NE,45,0.7,3.1,88,0.00,,,0.00,pywws,2013-03-06 23:57:00,